This is the latest recevied weather packets stored in our database for station/object OE6JUE. If no packets are shown the sender has not sent any weather packets the latest 1 day(s).
| Time | Temp. | Humidity | Pressure | Rain* | Wind** | Luminosity | Snow |
|---|---|---|---|---|---|---|---|
| 1778029854 | 10° C | 85% | 1010.5 hPa | 0 mm | 0 m/s | - | - |
| 1778029555 | 9.44° C | 84% | 1010.4 hPa | 0 mm | 0 m/s | - | - |
| 1778029254 | 10° C | 84% | 1010.4 hPa | - | 0 m/s | - | - |
| 1778028954 | 10° C | 84% | 1010.4 hPa | 0 mm | 0 m/s | - | - |
| 1778028654 | 10° C | 84% | 1010.4 hPa | 0 mm | 0 m/s | - | - |
| 1778028355 | 10° C | 84% | 1010.4 hPa | 0 mm | 0 m/s | - | - |
| 1778028054 | 10° C | 84% | 1010.4 hPa | 0 mm | 0.45 m/s, 45° | - | - |
| 1778027754 | 10° C | 84% | 1010.4 hPa | 0 mm | 0.45 m/s, 45° | - | - |
| 1778027454 | 10° C | 83% | 1010.2 hPa | 0 mm | 0.45 m/s, 225° | - | - |
| 1778027154 | 10° C | 83% | 1010.2 hPa | 0 mm | 0.45 m/s, 225° | - | - |
| 1778026855 | 10.56° C | 83% | 1010.4 hPa | 0 mm | 0 m/s | - | - |
| 1778026554 | 10.56° C | 83% | 1010.4 hPa | 0 mm | 0 m/s | - | - |
| 1778026254 | 10.56° C | 83% | 1010.4 hPa | 0 mm | 0.45 m/s, 270° | - | - |
| 1778025954 | 10.56° C | 82% | 1010.4 hPa | 0 mm | 0.45 m/s, 225° | - | - |
| 1778025655 | 10.56° C | 81% | 1010.4 hPa | - | 0.45 m/s, 203° | - | - |
| 1778025354 | 10.56° C | 81% | 1010.4 hPa | 0 mm | 0.45 m/s, 203° | - | - |
| 1778025054 | 10.56° C | 81% | 1010.3 hPa | 0 mm | 0 m/s | - | - |
| 1778024754 | 11.11° C | 82% | 1010.5 hPa | 0 mm | 0 m/s | - | - |
| 1778024454 | 11.11° C | 81% | 1010.5 hPa | 0 mm | 0.45 m/s, 270° | - | - |
| 1778013802 | 14.44° C | 66% | 1010.9 hPa | 0 mm | 0.89 m/s, 135° | - | - |
| 1778013502 | 15° C | 65% | 1010.7 hPa | 0 mm | 0.45 m/s, 315° | - | - |
| 1778013202 | 15° C | 65% | 1010.8 hPa | 0 mm | 0.45 m/s, 315° | - | - |
| 1778012902 | 15° C | 64% | 1011 hPa | 0 mm | 0.45 m/s, 315° | - | - |
| 1778012606 | 15.56° C | 64% | 1010.9 hPa | 0 mm | 0.45 m/s, 360° | - | - |
| 1778012302 | 15.56° C | 64% | 1010.9 hPa | 0 mm | 0.45 m/s, 135° | - | - |
* Rain latest hour (hover to see other rain measurements)
** Current wind speed in m/s (hover to see current wind gust speed)